Time;durP1;ratioP1;P1;durP2;ratioP2;P2;SDS_P1;SDS_P2;PMS_P1;PMS_P2;Temp;Humidity;BMP_temperature;BMP_pressure;BME280_temperature;BME280_humidity;BME280_pressure;Samples;Min_cycle;Max_cycle;Signal;HPM_P1;HPM_P2
2021/05/22 00:00:17;;;;;;;4.38;1.17;;;16.50;66.10;;;;;;5031215;28;20036;-68
2021/05/22 00:02:42;;;;;;;5.50;1.13;;;16.50;66.30;;;;;;5014011;28;20061;-68
2021/05/22 00:05:08;;;;;;;3.70;1.10;;;16.50;66.20;;;;;;5031334;28;20044;-68
2021/05/22 00:07:34;;;;;;;2.60;0.90;;;16.40;66.20;;;;;;5031586;28;20037;-68
2021/05/22 00:10:00;;;;;;;6.22;1.30;;;16.40;66.40;;;;;;5031561;28;20033;-68
2021/05/22 00:12:25;;;;;;;3.28;1.08;;;16.40;66.40;;;;;;5013873;28;20029;-68
2021/05/22 00:14:52;;;;;;;3.35;1.10;;;16.40;66.40;;;;;;5031250;28;20029;-68
2021/05/22 00:17:17;;;;;;;7.07;0.98;;;16.40;66.50;;;;;;5031503;28;20071;-68
2021/05/22 00:19:43;;;;;;;4.63;1.08;;;16.40;66.50;;;;;;5031343;28;20071;-68
2021/05/22 00:22:08;;;;;;;3.22;0.90;;;16.40;66.70;;;;;;5013747;28;20022;-68
2021/05/22 00:24:34;;;;;;;3.40;0.90;;;16.40;66.70;;;;;;5031142;28;20021;-68
2021/05/22 00:27:00;;;;;;;4.07;1.05;;;16.40;66.70;;;;;;5031404;28;20444;-68
2021/05/22 00:29:25;;;;;;;4.72;1.20;;;16.40;66.70;;;;;;5031295;28;20028;-68
2021/05/22 00:31:51;;;;;;;5.72;1.00;;;16.30;66.80;;;;;;5031405;28;20397;-68
2021/05/22 00:34:16;;;;;;;4.25;1.00;;;16.30;66.90;;;;;;5031045;28;20036;-68
2021/05/22 00:36:42;;;;;;;3.05;0.90;;;16.40;66.90;;;;;;5031259;28;20029;-68
2021/05/22 00:39:07;;;;;;;3.22;0.90;;;16.40;66.90;;;;;;5013848;28;20026;-68
2021/05/22 00:41:33;;;;;;;5.13;0.93;;;16.40;67.10;;;;;;5035403;28;20018;-68
2021/05/22 00:43:59;;;;;;;3.75;1.05;;;16.40;67.10;;;;;;5034966;28;20030;-67
2021/05/22 00:46:24;;;;;;;3.53;0.90;;;16.30;67.10;;;;;;5017549;28;20571;-68
2021/05/22 00:48:50;;;;;;;5.93;1.20;;;16.30;67.00;;;;;;5017466;28;20032;-68
2021/05/22 00:51:16;;;;;;;2.92;1.00;;;16.30;67.30;;;;;;5017397;28;20492;-68
2021/05/22 00:53:41;;;;;;;6.70;1.23;;;16.30;67.10;;;;;;5017050;28;20120;-68
2021/05/22 00:56:07;;;;;;;3.45;1.05;;;16.30;67.20;;;;;;5035121;28;20082;-68
2021/05/22 00:58:34;;;;;;;4.15;1.10;;;16.30;67.20;;;;;;5034316;28;20029;-68
2021/05/22 01:01:00;;;;;;;2.97;0.90;;;16.20;67.20;;;;;;5027960;28;20398;-67
2021/05/22 01:03:28;;;;;;;5.10;1.10;;;16.20;67.30;;;;;;5016148;28;20064;-67
2021/05/22 01:06:12;;;;;;;3.35;1.10;;;16.30;66.90;;;;;;5034313;28;20017;-68
2021/05/22 01:08:42;;;;;;;4.35;1.00;;;16.20;67.30;;;;;;5033761;28;20025;-68
2021/05/22 01:11:18;;;;;;;4.82;0.90;;;16.20;67.40;;;;;;5034232;28;20104;-68
2021/05/22 01:13:48;;;;;;;3.65;1.10;;;16.20;67.50;;;;;;5033821;28;20461;-67
2021/05/22 01:16:18;;;;;;;3.70;0.93;;;16.20;67.20;;;;;;5034160;28;20018;-68
2021/05/22 01:18:44;;;;;;;2.58;1.00;;;16.20;67.20;;;;;;5033475;28;20076;-68
2021/05/22 01:21:10;;;;;;;3.70;1.02;;;16.20;67.60;;;;;;4996499;28;20053;-67
2021/05/22 01:23:40;;;;;;;2.83;0.90;;;16.20;67.90;;;;;;5013729;28;20101;-67
2021/05/22 01:26:06;;;;;;;4.35;1.00;;;16.10;67.50;;;;;;5014187;28;20029;-67
2021/05/22 01:28:35;;;;;;;3.88;1.13;;;16.10;67.60;;;;;;4996522;28;20028;-67
2021/05/22 01:31:03;;;;;;;2.58;0.70;;;16.10;67.80;;;;;;5014017;28;20113;-67
2021/05/22 01:33:29;;;;;;;4.70;1.10;;;16.10;67.70;;;;;;4996176;28;20049;-67
2021/05/22 01:35:55;;;;;;;4.28;1.00;;;16.10;67.50;;;;;;4996233;28;20121;-67
2021/05/22 01:38:21;;;;;;;1.77;0.70;;;16.10;67.70;;;;;;4995925;28;20117;-68
2021/05/22 01:40:47;;;;;;;4.30;1.05;;;16.10;67.80;;;;;;5013900;28;20525;-68
2021/05/22 01:43:12;;;;;;;6.05;1.35;;;16.10;68.10;;;;;;4996195;28;20029;-68
2021/05/22 01:45:41;;;;;;;3.70;0.85;;;16.10;67.70;;;;;;4995728;28;20120;-68
2021/05/22 01:48:08;;;;;;;5.45;1.08;;;16.10;68.00;;;;;;4995914;28;20496;-68
2021/05/22 01:50:38;;;;;;;5.15;1.10;;;16.10;68.00;;;;;;5013338;28;20060;-67
2021/05/22 01:53:08;;;;;;;5.50;1.23;;;16.10;68.00;;;;;;5013570;28;20079;-67
2021/05/22 01:55:36;;;;;;;3.58;1.20;;;16.10;67.70;;;;;;5016237;28;20563;-67
2021/05/22 01:58:02;;;;;;;5.68;1.30;;;16.00;68.00;;;;;;5015551;28;20114;-67
2021/05/22 02:00:28;;;;;;;10.25;1.40;;;16.00;68.10;;;;;;5033000;28;20025;-69
2021/05/22 02:03:27;;;;;;;4.20;1.05;;;16.00;68.20;;;;;;5033064;28;20405;-68
2021/05/22 02:05:55;;;;;;;4.55;1.17;;;16.00;68.10;;;;;;5015361;28;20441;-68
2021/05/22 02:08:22;;;;;;;9.30;1.30;;;16.00;67.70;;;;;;5032910;28;20025;-68
2021/05/22 02:10:48;;;;;;;2.63;0.82;;;16.00;68.70;;;;;;5033158;28;20118;-69
2021/05/22 02:13:14;;;;;;;5.85;1.33;;;16.00;68.70;;;;;;5032972;28;20612;-67
2021/05/22 02:15:41;;;;;;;4.10;1.17;;;16.00;68.30;;;;;;5014860;28;20026;-67
2021/05/22 02:18:11;;;;;;;8.13;1.30;;;16.00;68.20;;;;;;5015150;28;20021;-67
2021/05/22 02:20:37;;;;;;;4.72;0.90;;;16.00;68.20;;;;;;5013897;28;20060;-67
2021/05/22 02:23:05;;;;;;;5.28;1.05;;;15.90;67.90;;;;;;5014302;28;20499;-67
2021/05/22 02:25:30;;;;;;;6.82;1.20;;;15.90;68.20;;;;;;5014727;28;20021;-67
2021/05/22 02:27:59;;;;;;;3.92;1.02;;;15.90;67.70;;;;;;5032866;28;20279;-67
2021/05/22 02:30:25;;;;;;;4.05;1.00;;;15.90;68.10;;;;;;5032524;28;20021;-67
2021/05/22 02:32:52;;;;;;;4.43;1.25;;;15.90;68.20;;;;;;5032662;28;20047;-67
2021/05/22 02:35:20;;;;;;;3.38;0.98;;;15.90;67.90;;;;;;5032276;28;20488;-67
2021/05/22 02:37:48;;;;;;;4.63;1.10;;;15.90;68.20;;;;;;5014944;28;20393;-68
2021/05/22 02:40:16;;;;;;;4.72;0.95;;;15.90;68.20;;;;;;5032402;28;20083;-68
2021/05/22 02:42:51;;;;;;;7.15;1.20;;;15.90;68.40;;;;;;5014760;28;20060;-68
2021/05/22 02:45:18;;;;;;;10.32;1.63;;;15.90;68.10;;;;;;5032108;28;20479;-68
2021/05/22 02:47:47;;;;;;;8.25;1.50;;;15.80;68.20;;;;;;5032198;28;20397;-68
2021/05/22 02:50:13;;;;;;;9.30;1.38;;;15.90;68.00;;;;;;5014441;28;20405;-67
2021/05/22 02:52:39;;;;;;;5.05;1.10;;;15.90;68.40;;;;;;5014391;28;20104;-69
2021/05/22 02:55:09;;;;;;;8.57;1.30;;;15.80;68.40;;;;;;5031976;28;20033;-69
2021/05/22 02:57:38;;;;;;;4.53;1.00;;;15.80;68.10;;;;;;4995185;28;20113;-67
2021/05/22 03:00:05;;;;;;;7.22;1.08;;;15.80;68.50;;;;;;4994573;28;20401;-67
2021/05/22 03:02:31;;;;;;;7.63;1.00;;;15.80;68.60;;;;;;4993926;28;20026;-67
2021/05/22 03:04:57;;;;;;;4.32;1.17;;;15.80;68.60;;;;;;5012176;28;20033;-67
2021/05/22 03:07:22;;;;;;;4.80;1.00;;;15.80;68.10;;;;;;5012222;28;20097;-68
2021/05/22 03:09:48;;;;;;;6.93;1.48;;;15.80;68.40;;;;;;4994695;28;20125;-67
2021/05/22 03:12:20;;;;;;;4.60;1.00;;;15.80;67.70;;;;;;4994657;28;20026;-67
2021/05/22 03:14:46;;;;;;;;;;;15.80;68.40;;;;;;5012096;28;20029;-67
2021/05/22 03:17:11;;;;;;;4.85;1.10;;;15.70;68.10;;;;;;4994460;28;19980;-68
2021/05/22 03:19:37;;;;;;;3.75;1.20;;;15.70;68.50;;;;;;4999384;28;20033;-67
2021/05/22 03:22:02;;;;;;;4.40;1.13;;;15.70;68.30;;;;;;5006488;28;20022;-68
2021/05/22 03:24:28;;;;;;;7.78;1.23;;;15.70;68.00;;;;;;5013640;28;20029;-66
2021/05/22 03:26:54;;;;;;;6.93;1.40;;;15.70;67.90;;;;;;5031581;28;20440;-67
2021/05/22 03:29:20;;;;;;;4.00;0.80;;;15.70;66.40;;;;;;5031251;28;20022;-67
2021/05/22 03:31:45;;;;;;;4.28;1.17;;;15.70;67.90;;;;;;5031352;28;20626;-68
2021/05/22 03:34:11;;;;;;;3.33;0.88;;;15.70;68.00;;;;;;5013553;28;20120;-67
2021/05/22 03:36:37;;;;;;;4.30;1.20;;;15.70;67.90;;;;;;5031323;28;20079;-67
2021/05/22 03:39:03;;;;;;;7.13;0.90;;;15.70;67.90;;;;;;5013562;28;20068;-67
2021/05/22 03:41:29;;;;;;;5.05;1.08;;;15.70;68.20;;;;;;5031290;28;20084;-67
2021/05/22 03:43:54;;;;;;;3.63;1.10;;;15.70;67.60;;;;;;5012991;28;20018;-69
2021/05/22 03:46:20;;;;;;;4.03;1.25;;;15.60;67.90;;;;;;5013470;28;20025;-67
2021/05/22 03:48:45;;;;;;;5.30;1.13;;;15.60;67.30;;;;;;5031211;28;20539;-67
2021/05/22 03:51:11;;;;;;;5.45;1.33;;;15.60;67.80;;;;;;5031075;28;20029;-67
2021/05/22 03:53:36;;;;;;;2.65;1.00;;;15.60;68.60;;;;;;5013221;28;20070;-66
2021/05/22 03:56:02;;;;;;;3.92;1.00;;;15.60;66.70;;;;;;5031171;28;20104;-67
2021/05/22 03:58:28;;;;;;;5.90;0.90;;;15.60;68.20;;;;;;5013075;28;20021;-67
2021/05/22 04:00:54;;;;;;;4.90;1.10;;;15.60;67.90;;;;;;5031818;28;20397;-68
2021/05/22 04:03:19;;;;;;;3.47;0.88;;;15.60;68.30;;;;;;5031098;28;20021;-67
2021/05/22 04:05:45;;;;;;;4.25;0.93;;;15.70;68.30;;;;;;5030565;28;20126;-67
2021/05/22 04:08:11;;;;;;;2.88;0.68;;;15.70;68.00;;;;;;5031057;28;20503;-67
2021/05/22 04:10:37;;;;;;;4.78;0.68;;;15.70;68.00;;;;;;5013284;28;20500;-67
2021/05/22 04:13:02;;;;;;;5.20;0.77;;;15.70;67.80;;;;;;5012936;28;20155;-68
2021/05/22 04:15:28;;;;;;;3.70;0.90;;;15.70;67.60;;;;;;5012773;28;20025;-67
2021/05/22 04:17:53;;;;;;;3.92;0.80;;;15.70;66.80;;;;;;5030836;28;20028;-68
2021/05/22 04:20:19;;;;;;;2.70;0.80;;;15.70;68.30;;;;;;5030430;28;20032;-68
2021/05/22 04:22:45;;;;;;;4.03;0.85;;;15.70;68.00;;;;;;5030562;28;20026;-67
2021/05/22 04:25:11;;;;;;;4.95;1.17;;;15.70;67.70;;;;;;5030590;28;20105;-68
2021/05/22 04:27:36;;;;;;;4.03;0.82;;;15.70;67.40;;;;;;5012939;28;20113;-67
2021/05/22 04:30:04;;;;;;;4.32;1.00;;;15.70;67.00;;;;;;5012778;28;20620;-68
2021/05/22 04:32:29;;;;;;;2.97;0.73;;;15.70;67.10;;;;;;5030546;28;20029;-68
2021/05/22 04:34:55;;;;;;;6.53;1.23;;;15.70;67.10;;;;;;5030468;28;20028;-68
2021/05/22 04:37:20;;;;;;;1.98;0.65;;;15.70;67.90;;;;;;5030180;28;20036;-68
2021/05/22 04:39:46;;;;;;;5.43;1.00;;;15.60;66.90;;;;;;5028777;28;20047;-67
2021/05/22 04:42:11;;;;;;;4.53;0.80;;;15.70;66.90;;;;;;5030511;28;20055;-67
2021/05/22 04:44:37;;;;;;;3.65;0.80;;;15.70;66.70;;;;;;5012482;28;20397;-68
2021/05/22 04:47:03;;;;;;;2.63;0.93;;;15.70;67.00;;;;;;5030747;28;20400;-67
2021/05/22 04:49:28;;;;;;;5.22;0.82;;;15.70;67.50;;;;;;5030525;28;20022;-67
2021/05/22 04:51:57;;;;;;;4.57;1.00;;;15.70;66.80;;;;;;5030493;28;20048;-67
2021/05/22 04:54:23;;;;;;;2.97;0.88;;;15.70;66.20;;;;;;5009889;28;20048;-67
2021/05/22 04:56:48;;;;;;;3.92;1.00;;;15.70;66.50;;;;;;5011213;28;20026;-67
2021/05/22 04:59:14;;;;;;;5.50;1.15;;;15.70;67.00;;;;;;5010778;28;20030;-67
2021/05/22 05:01:40;;;;;;;5.03;0.95;;;15.70;66.30;;;;;;5012726;28;20021;-68
2021/05/22 05:04:07;;;;;;;4.28;0.85;;;15.80;67.20;;;;;;5030208;28;20022;-68
2021/05/22 05:06:33;;;;;;;2.55;0.75;;;15.80;66.30;;;;;;5030172;28;20613;-67
2021/05/22 05:08:59;;;;;;;3.50;0.70;;;15.80;66.80;;;;;;5030227;28;20052;-68
2021/05/22 05:11:24;;;;;;;3.28;0.80;;;15.80;66.50;;;;;;5012681;28;20108;-67
2021/05/22 05:13:50;;;;;;;3.80;0.90;;;15.80;66.80;;;;;;5029688;28;20038;-68
2021/05/22 05:16:15;;;;;;;2.58;0.88;;;15.90;66.20;;;;;;5030387;28;20033;-68
2021/05/22 05:18:41;;;;;;;4.38;1.17;;;15.90;66.80;;;;;;5001475;28;20073;-67
2021/05/22 05:21:07;;;;;;;3.63;0.60;;;15.90;65.50;;;;;;5023630;28;20024;-67
2021/05/22 05:23:37;;;;;;;2.28;0.80;;;15.90;65.20;;;;;;5022235;28;20025;-68
2021/05/22 05:26:04;;;;;;;5.00;0.90;;;16.00;65.20;;;;;;5006079;28;20101;-67
2021/05/22 05:28:30;;;;;;;3.58;0.85;;;16.00;65.00;;;;;;5016501;28;20489;-68
2021/05/22 05:30:55;;;;;;;2.28;0.80;;;16.00;65.10;;;;;;5022404;28;20067;-68
2021/05/22 05:33:21;;;;;;;2.88;0.95;;;16.00;65.00;;;;;;5021004;28;20551;-67
2021/05/22 05:35:47;;;;;;;3.55;1.10;;;16.10;65.20;;;;;;5027849;28;20853;-67
2021/05/22 05:38:13;;;;;;;4.07;0.80;;;16.10;64.60;;;;;;5044966;28;20051;-68
2021/05/22 05:40:39;;;;;;;3.40;0.95;;;16.10;65.10;;;;;;5023180;28;20028;-67
2021/05/22 05:43:09;;;;;;;2.70;0.77;;;16.10;64.30;;;;;;5045322;28;20484;-68
2021/05/22 05:45:35;;;;;;;6.55;1.10;;;16.00;64.60;;;;;;5045282;28;20021;-68
2021/05/22 05:48:01;;;;;;;3.08;0.70;;;16.00;65.00;;;;;;5029540;28;20025;-67
2021/05/22 05:50:26;;;;;;;6.45;1.13;;;16.00;65.50;;;;;;5010105;28;20449;-68
2021/05/22 05:52:52;;;;;;;3.65;0.90;;;16.10;65.70;;;;;;5009441;28;20945;-67
2021/05/22 05:55:17;;;;;;;3.88;0.77;;;16.10;64.70;;;;;;5008803;28;20039;-68
2021/05/22 05:57:43;;;;;;;4.68;1.00;;;16.10;65.10;;;;;;5026678;28;20510;-67
2021/05/22 06:00:09;;;;;;;3.28;0.90;;;16.10;64.90;;;;;;5027066;28;20108;-68
2021/05/22 06:02:35;;;;;;;4.40;0.88;;;16.10;65.80;;;;;;5027004;28;20060;-67
2021/05/22 06:05:01;;;;;;;1.70;0.70;;;16.10;65.00;;;;;;5026757;28;20052;-68
2021/05/22 06:07:26;;;;;;;2.15;0.77;;;16.10;65.30;;;;;;5009302;28;20025;-68
2021/05/22 06:09:52;;;;;;;3.95;1.00;;;16.10;65.40;;;;;;5008904;28;20032;-68
2021/05/22 06:12:18;;;;;;;2.28;0.90;;;16.10;64.90;;;;;;5008892;28;20034;-68
2021/05/22 06:14:50;;;;;;;4.20;1.00;;;16.10;64.60;;;;;;5002044;28;20120;-67
2021/05/22 06:17:15;;;;;;;4.18;0.90;;;16.10;64.80;;;;;;5032770;28;20029;-69
2021/05/22 06:19:41;;;;;;;2.90;0.70;;;16.10;64.90;;;;;;5028463;28;20036;-68
2021/05/22 06:22:06;;;;;;;2.95;0.93;;;16.10;65.10;;;;;;5028627;28;20128;-69
2021/05/22 06:24:32;;;;;;;3.53;0.88;;;16.20;64.90;;;;;;5028240;28;20422;-67
2021/05/22 06:26:57;;;;;;;4.82;1.10;;;16.20;64.50;;;;;;5028729;28;20025;-67
2021/05/22 06:29:23;;;;;;;6.85;1.20;;;16.30;64.40;;;;;;5023678;28;20033;-68
2021/05/22 06:31:49;;;;;;;6.15;1.10;;;16.40;64.60;;;;;;4996711;28;20482;-69
2021/05/22 06:34:15;;;;;;;8.98;1.50;;;16.40;64.90;;;;;;5027799;28;20033;-67
2021/05/22 06:36:40;;;;;;;6.50;1.00;;;16.50;64.00;;;;;;4999699;28;20021;-67
2021/05/22 06:39:06;;;;;;;8.63;1.02;;;16.40;64.50;;;;;;4992951;28;20036;-67
2021/05/22 06:41:32;;;;;;;6.22;1.30;;;16.40;63.50;;;;;;5009513;28;20036;-67
2021/05/22 06:43:58;;;;;;;6.75;1.20;;;16.50;64.90;;;;;;5001530;28;20112;-67
2021/05/22 06:48:49;;;;;;;8.57;1.42;;;16.60;64.60;;;;;;5039914;28;20084;-67
2021/05/22 06:51:15;;;;;;;6.15;1.00;;;16.60;65.50;;;;;;5026046;28;20485;-67
2021/05/22 06:53:40;;;;;;;5.85;0.90;;;16.60;63.80;;;;;;5007679;28;20033;-68
2021/05/22 06:56:06;;;;;;;7.43;1.13;;;16.60;63.60;;;;;;5008165;28;20052;-67
2021/05/22 06:58:32;;;;;;;7.85;1.00;;;16.60;63.40;;;;;;5025735;28;20040;-67
2021/05/22 07:00:58;;;;;;;6.78;1.30;;;16.60;63.50;;;;;;5008160;28;20036;-67
2021/05/22 07:03:24;;;;;;;4.55;0.77;;;16.60;63.80;;;;;;5025255;28;20064;-67
2021/05/22 07:05:50;;;;;;;8.38;1.15;;;16.60;64.50;;;;;;5001907;28;20040;-66
2021/05/22 07:08:17;;;;;;;6.35;1.20;;;16.60;64.50;;;;;;5006561;28;20056;-66
2021/05/22 07:10:43;;;;;;;7.22;1.10;;;16.60;63.40;;;;;;5006812;28;20033;-66
2021/05/22 07:13:09;;;;;;;5.38;1.10;;;16.60;63.80;;;;;;5006392;28;20079;-67
2021/05/22 07:15:35;;;;;;;6.03;1.15;;;16.60;64.10;;;;;;5024372;28;20936;-66
2021/05/22 07:18:01;;;;;;;3.55;0.98;;;16.50;64.00;;;;;;5006057;28;20040;-67
2021/05/22 07:20:26;;;;;;;6.28;1.13;;;16.60;64.20;;;;;;5020182;28;20037;-68
2021/05/22 07:22:54;;;;;;;6.80;1.20;;;16.60;64.60;;;;;;5014628;28;20029;-67
2021/05/22 07:25:23;;;;;;;5.28;1.00;;;16.50;64.50;;;;;;4995057;28;20029;-67
2021/05/22 07:27:50;;;;;;;6.22;1.00;;;16.60;65.00;;;;;;5021708;28;20036;-66
2021/05/22 07:30:16;;;;;;;4.60;0.90;;;16.60;65.20;;;;;;5020053;28;20021;-67
2021/05/22 07:32:43;;;;;;;4.38;1.00;;;16.50;65.30;;;;;;5002789;28;20056;-66
2021/05/22 07:35:11;;;;;;;6.32;1.15;;;16.50;65.40;;;;;;5023438;28;20060;-67
2021/05/22 07:37:37;;;;;;;6.80;1.10;;;16.60;65.00;;;;;;5006234;28;20068;-67
2021/05/22 07:40:04;;;;;;;3.78;0.90;;;16.60;65.00;;;;;;5024106;28;20488;-69
2021/05/22 07:42:31;;;;;;;5.60;1.15;;;16.60;65.00;;;;;;5023311;28;20412;-68
2021/05/22 07:44:57;;;;;;;4.07;0.90;;;16.60;65.40;;;;;;5023898;28;20018;-67
2021/05/22 07:47:23;;;;;;;3.80;0.90;;;16.60;65.10;;;;;;5023951;28;20057;-67
2021/05/22 07:49:50;;;;;;;5.20;1.10;;;16.60;65.00;;;;;;5005211;28;20848;-69
2021/05/22 07:52:16;;;;;;;3.63;0.90;;;16.60;65.10;;;;;;5024357;28;20025;-68
2021/05/22 07:54:42;;;;;;;4.15;0.88;;;16.50;65.30;;;;;;5023701;28;20848;-67
2021/05/22 07:57:10;;;;;;;3.80;0.90;;;16.50;65.30;;;;;;5014966;28;20096;-67
2021/05/22 07:59:36;;;;;;;2.63;0.80;;;16.50;65.60;;;;;;5006259;28;20033;-67
2021/05/22 08:02:03;;;;;;;3.72;0.77;;;16.50;65.50;;;;;;5024224;28;20072;-67
2021/05/22 08:04:28;;;;;;;2.83;0.73;;;16.50;65.60;;;;;;5023106;28;20051;-66
2021/05/22 08:06:54;;;;;;;3.42;0.90;;;16.50;65.60;;;;;;5005687;28;20481;-66
2021/05/22 08:09:20;;;;;;;3.78;1.00;;;16.40;65.70;;;;;;5023553;28;20091;-66
2021/05/22 08:11:47;;;;;;;4.60;1.02;;;16.40;65.90;;;;;;5005167;28;20111;-67
2021/05/22 08:14:12;;;;;;;4.28;0.90;;;16.40;65.80;;;;;;5002317;28;20033;-67
2021/05/22 08:16:38;;;;;;;4.55;0.98;;;16.40;65.80;;;;;;5012893;28;20489;-67
2021/05/22 08:19:06;;;;;;;5.07;0.93;;;16.40;65.90;;;;;;5005583;28;20030;-66
2021/05/22 08:21:32;;;;;;;2.95;0.73;;;16.40;66.10;;;;;;5023368;28;20048;-67
2021/05/22 08:23:58;;;;;;;3.53;0.77;;;16.40;66.00;;;;;;5023690;28;20049;-66
2021/05/22 08:26:24;;;;;;;3.85;0.80;;;16.40;65.80;;;;;;5023612;28;20552;-67
2021/05/22 08:28:51;;;;;;;5.88;1.08;;;16.40;65.80;;;;;;5005573;28;20484;-65
2021/05/22 08:31:17;;;;;;;7.60;1.10;;;16.40;65.60;;;;;;5023769;28;20025;-68
2021/05/22 08:33:44;;;;;;;4.32;1.00;;;16.40;65.50;;;;;;5022084;28;20151;-67
2021/05/22 08:36:09;;;;;;;6.20;1.05;;;16.40;65.90;;;;;;5023463;28;20017;-67
2021/05/22 08:38:36;;;;;;;5.13;1.30;;;16.40;65.40;;;;;;5022888;28;20098;-68
2021/05/22 08:41:03;;;;;;;12.52;1.48;;;16.30;65.60;;;;;;5023121;28;20408;-73
2021/05/22 08:43:28;;;;;;;12.93;1.35;;;16.30;65.70;;;;;;5023432;28;20030;-69
2021/05/22 08:45:54;;;;;;;12.77;1.73;;;16.40;65.60;;;;;;5022478;28;20075;-67
2021/05/22 08:48:20;;;;;;;7.03;1.30;;;16.40;65.50;;;;;;5002315;28;20054;-68
2021/05/22 08:50:47;;;;;;;5.13;1.10;;;16.40;65.30;;;;;;5004047;28;20061;-68
2021/05/22 08:53:13;;;;;;;5.50;1.00;;;16.40;65.50;;;;;;5027279;28;20029;-68
2021/05/22 08:55:39;;;;;;;9.88;1.45;;;16.40;65.50;;;;;;5001273;28;20014;-66
2021/05/22 08:58:04;;;;;;;7.68;0.93;;;16.40;65.40;;;;;;5021182;28;20029;-66
2021/05/22 09:00:37;;;;;;;7.53;1.45;;;16.40;65.30;;;;;;5010724;28;20032;-65
2021/05/22 09:03:03;;;;;;;8.38;1.95;;;16.40;65.40;;;;;;5031353;28;20032;-67
2021/05/22 09:05:30;;;;;;;8.55;1.23;;;16.30;65.50;;;;;;5008540;28;20018;-65
2021/05/22 09:07:58;;;;;;;5.50;1.20;;;16.30;65.60;;;;;;5010070;28;20498;-67
2021/05/22 09:10:25;;;;;;;9.35;1.40;;;16.40;65.70;;;;;;4997558;28;20113;-65
2021/05/22 09:13:13;;;;;;;7.65;1.13;;;16.30;66.20;;;;;;5014686;28;20037;-65
2021/05/22 09:15:42;;;;;;;8.48;1.65;;;16.30;66.60;;;;;;5026664;28;20029;-65
2021/05/22 09:18:13;;;;;;;10.27;1.30;;;16.30;66.40;;;;;;5026973;28;20025;-66
2021/05/22 09:20:57;;;;;;;8.05;1.30;;;16.40;66.60;;;;;;5009400;28;20467;-66
2021/05/22 09:23:32;;;;;;;15.02;2.70;;;16.40;66.90;;;;;;5009532;28;20036;-66
2021/05/22 09:25:59;;;;;;;12.90;2.75;;;16.40;66.80;;;;;;5027261;28;20022;-67
2021/05/22 09:28:33;;;;;;;9.77;2.45;;;16.50;67.20;;;;;;5009516;28;20029;-67
2021/05/22 09:31:00;;;;;;;8.77;2.25;;;16.40;67.10;;;;;;5027544;28;20060;-68
2021/05/22 09:33:28;;;;;;;446.85;402.85;;;16.40;67.00;;;;;;5026710;28;20531;-66
2021/05/22 09:36:01;;;;;;;188.55;169.07;;;16.40;67.60;;;;;;5018396;28;20029;-66
2021/05/22 09:38:36;;;;;;;35.70;30.50;;;16.40;67.20;;;;;;5043849;28;20036;-66
2021/05/22 09:41:24;;;;;;;34.70;26.15;;;16.50;67.20;;;;;;5033715;28;20040;-65
2021/05/22 09:44:25;;;;;;;28.45;24.55;;;16.50;66.70;;;;;;5034344;28;20219;-66
2021/05/22 09:46:51;;;;;;;25.40;19.92;;;16.60;66.90;;;;;;5026541;28;20048;-66
2021/05/22 09:49:32;;;;;;;23.35;14.90;;;16.60;66.90;;;;;;5026567;28;20389;-68
2021/05/22 09:52:05;;;;;;;24.80;15.75;;;16.70;65.90;;;;;;5011142;28;20029;-66
2021/05/22 09:54:42;;;;;;;21.63;14.55;;;16.70;65.40;;;;;;5044455;28;20025;-68
2021/05/22 09:57:10;;;;;;;17.45;13.20;;;16.80;65.40;;;;;;5012165;28;21307;-66
2021/05/22 09:59:36;;;;;;;19.55;14.02;;;16.80;65.80;;;;;;5026375;28;20051;-68
2021/05/22 10:02:02;;;;;;;23.17;14.82;;;16.80;65.60;;;;;;5025998;28;20500;-69
2021/05/22 10:04:28;;;;;;;23.05;13.45;;;16.80;65.30;;;;;;5008590;28;20029;-67
2021/05/22 10:06:56;;;;;;;19.98;13.98;;;16.80;65.70;;;;;;5025357;28;20107;-66
2021/05/22 10:09:22;;;;;;;17.52;10.00;;;16.80;65.40;;;;;;5007846;28;20140;-67
2021/05/22 10:12:09;;;;;;;14.73;10.25;;;16.80;65.40;;;;;;5025449;28;20033;-67
2021/05/22 10:14:42;;;;;;;16.70;10.60;;;16.80;65.50;;;;;;5009383;28;20029;-65
2021/05/22 10:17:10;;;;;;;22.15;11.88;;;16.90;65.60;;;;;;5003125;28;20441;-70
2021/05/22 10:19:37;;;;;;;35.83;20.15;;;17.00;65.50;;;;;;5008468;28;20033;-70
2021/05/22 10:22:07;;;;;;;64.07;43.03;;;17.00;66.30;;;;;;5025262;28;20034;-72
2021/05/22 10:24:33;;;;;;;41.70;24.75;;;17.10;66.00;;;;;;5007499;28;20504;-70
2021/05/22 10:26:59;;;;;;;40.20;20.55;;;17.10;65.70;;;;;;5009961;28;20025;-74
2021/05/22 10:29:26;;;;;;;43.83;27.05;;;17.10;65.30;;;;;;5004114;28;20037;-73
2021/05/22 10:31:53;;;;;;;56.95;31.92;;;17.10;65.50;;;;;;5009226;28;20068;-73
2021/05/22 10:34:24;;;;;;;120.47;94.78;;;17.10;65.60;;;;;;5008149;28;20033;-74
2021/05/22 10:36:53;;;;;;;113.20;68.50;;;17.10;66.30;;;;;;5008501;28;20059;-75
2021/05/22 10:39:39;;;;;;;75.85;49.28;;;17.20;66.40;;;;;;5008831;28;20034;-76
2021/05/22 10:42:09;;;;;;;80.45;48.53;;;17.20;66.30;;;;;;5025245;28;20090;-68
2021/05/22 10:44:39;;;;;;;78.10;57.63;;;17.20;66.40;;;;;;5024893;28;20495;-67
2021/05/22 10:47:12;;;;;;;86.45;67.40;;;17.20;66.10;;;;;;5003675;28;20129;-67
2021/05/22 10:50:04;;;;;;;78.97;50.33;;;17.20;66.30;;;;;;5028381;28;20460;-70
2021/05/22 10:52:35;;;;;;;61.45;40.22;;;17.30;65.90;;;;;;5017880;28;20053;-68
2021/05/22 10:55:10;;;;;;;60.58;41.28;;;17.20;65.70;;;;;;5025913;28;20616;-67
2021/05/22 10:57:42;;;;;;;60.33;38.20;;;17.30;66.00;;;;;;5033839;28;20095;-66
2021/05/22 11:00:17;;;;;;;41.72;28.23;;;17.30;65.90;;;;;;5032761;28;20027;-67
2021/05/22 11:02:57;;;;;;;48.50;31.20;;;17.30;65.40;;;;;;5025572;28;20018;-66
2021/05/22 11:05:29;;;;;;;52.70;22.30;;;17.30;65.90;;;;;;5013514;28;20688;-66
2021/05/22 11:08:04;;;;;;;;;;;17.30;64.90;;;;;;5008972;28;20048;-66
2021/05/22 11:10:48;;;;;;;73.35;26.65;;;17.30;65.30;;;;;;5029653;28;19920;-66
2021/05/22 11:13:23;;;;;;;44.50;22.00;;;17.40;65.60;;;;;;5023093;28;20081;-67
2021/05/22 11:15:56;;;;;;;38.60;18.55;;;17.40;65.40;;;;;;5026943;28;20033;-67
2021/05/22 11:18:51;;;;;;;51.63;22.10;;;17.50;65.00;;;;;;5029838;28;20033;-65
2021/05/22 11:21:23;;;;;;;50.63;29.00;;;17.50;65.20;;;;;;5049205;28;20055;-67
2021/05/22 11:23:58;;;;;;;35.95;22.45;;;17.50;65.40;;;;;;5026215;28;20013;-67
2021/05/22 11:26:42;;;;;;;38.60;20.45;;;17.50;65.40;;;;;;5030772;28;20049;-69
2021/05/22 11:29:08;;;;;;;40.17;18.70;;;17.60;65.60;;;;;;5030681;28;20101;-66
2021/05/22 11:31:34;;;;;;;36.97;20.58;;;17.60;65.50;;;;;;5018039;28;20120;-67
2021/05/22 11:34:21;;;;;;;37.05;19.48;;;17.60;65.90;;;;;;5049248;28;20025;-67
2021/05/22 11:37:12;;;;;;;40.60;19.65;;;17.60;66.30;;;;;;5041689;28;20025;-66
2021/05/22 11:39:38;;;;;;;39.65;20.20;;;17.70;66.30;;;;;;5013464;28;20444;-68
2021/05/22 11:42:37;;;;;;;41.20;18.80;;;17.70;65.90;;;;;;5013768;28;20021;-68
2021/05/22 11:45:05;;;;;;;32.33;17.23;;;17.70;66.30;;;;;;5030963;28;20071;-70
2021/05/22 11:47:32;;;;;;;31.27;15.07;;;17.80;66.30;;;;;;5030917;28;20060;-69
2021/05/22 11:49:58;;;;;;;29.27;15.05;;;17.80;66.20;;;;;;5013547;28;20025;-68
2021/05/22 11:52:35;;;;;;;27.45;15.30;;;17.80;66.00;;;;;;5031157;28;20029;-68
2021/05/22 11:55:16;;;;;;;79.32;59.70;;;17.80;65.70;;;;;;5031136;28;20030;-68
2021/05/22 11:57:42;;;;;;;54.33;37.83;;;17.80;66.00;;;;;;5031215;28;20112;-69
2021/05/22 12:00:08;;;;;;;149.35;112.30;;;17.80;66.10;;;;;;5030925;28;20520;-70
2021/05/22 12:02:41;;;;;;;101.00;74.15;;;17.80;66.00;;;;;;5031014;28;20108;-67
2021/05/22 12:05:09;;;;;;;316.15;232.88;;;17.80;66.00;;;;;;5013279;28;20489;-68
2021/05/22 12:07:48;;;;;;;146.20;112.30;;;17.90;65.90;;;;;;5025191;28;20025;-68
2021/05/22 12:10:15;;;;;;;552.00;413.35;;;17.90;66.10;;;;;;5027049;28;20038;-68
2021/05/22 12:12:40;;;;;;;127.75;87.60;;;17.90;66.00;;;;;;5011424;28;20448;-67
2021/05/22 12:15:06;;;;;;;121.38;88.07;;;18.00;66.10;;;;;;5020693;28;20017;-67
2021/05/22 12:17:44;;;;;;;91.97;75.32;;;18.00;65.60;;;;;;5014137;28;20164;-68
2021/05/22 12:20:10;;;;;;;85.72;64.80;;;18.00;65.90;;;;;;5012465;28;20110;-68
2021/05/22 12:22:35;;;;;;;60.03;43.63;;;18.00;65.80;;;;;;4994620;28;20029;-68
2021/05/22 12:25:01;;;;;;;51.03;38.95;;;18.10;66.20;;;;;;4994143;28;20560;-69
2021/05/22 12:27:27;;;;;;;73.18;54.03;;;18.10;66.00;;;;;;4995817;28;20029;-69
2021/05/22 12:29:54;;;;;;;47.47;37.72;;;18.10;65.40;;;;;;5010930;28;20045;-67
2021/05/22 12:32:21;;;;;;;73.07;53.85;;;18.10;65.60;;;;;;4994529;28;20563;-67
2021/05/22 12:34:54;;;;;;;63.20;48.00;;;18.20;65.20;;;;;;4993075;28;20334;-67
2021/05/22 12:37:22;;;;;;;61.78;47.35;;;18.20;65.60;;;;;;5019050;28;20022;-70
2021/05/22 12:39:49;;;;;;;62.75;49.45;;;18.20;65.10;;;;;;5016018;28;20108;-68
2021/05/22 12:42:26;;;;;;;48.95;37.38;;;18.20;65.10;;;;;;5015090;28;20093;-68
2021/05/22 12:44:54;;;;;;;55.35;43.10;;;18.20;65.30;;;;;;4996944;28;20176;-67
2021/05/22 12:47:24;;;;;;;48.55;38.58;;;18.20;65.20;;;;;;5016078;28;20046;-68